sensor_id;sensor_type;location;lat;lon;timestamp;pressure;altitude;pressure_sealevel;temperature;humidity
79085;BME280;68486;42.808;23.422;2023-04-06T00:00:48;93894.34;;;0.03;69.01
79085;BME280;68486;42.808;23.422;2023-04-06T00:03:13;93892.16;;;0.08;69.57
79085;BME280;68486;42.808;23.422;2023-04-06T00:05:39;93888.09;;;0.24;69.33
79085;BME280;68486;42.808;23.422;2023-04-06T00:08:04;93882.38;;;0.21;69.30
79085;BME280;68486;42.808;23.422;2023-04-06T00:10:30;93878.06;;;0.02;70.34
79085;BME280;68486;42.808;23.422;2023-04-06T00:12:55;93869.41;;;-0.26;69.95
79085;BME280;68486;42.808;23.422;2023-04-06T00:15:22;93861.78;;;0.11;69.51
79085;BME280;68486;42.808;23.422;2023-04-06T00:17:48;93869.91;;;0.07;69.63
79085;BME280;68486;42.808;23.422;2023-04-06T00:20:15;93867.09;;;-0.10;69.44
79085;BME280;68486;42.808;23.422;2023-04-06T00:22:40;93837.28;;;-0.22;69.80
79085;BME280;68486;42.808;23.422;2023-04-06T00:25:06;93869.38;;;-0.16;69.66
79085;BME280;68486;42.808;23.422;2023-04-06T00:27:32;93850.41;;;0.04;70.14
79085;BME280;68486;42.808;23.422;2023-04-06T00:29:57;93852.69;;;0.26;70.02
79085;BME280;68486;42.808;23.422;2023-04-06T00:32:22;93835.50;;;0.17;69.63
79085;BME280;68486;42.808;23.422;2023-04-06T00:34:48;93846.72;;;0.26;69.44
79085;BME280;68486;42.808;23.422;2023-04-06T00:37:13;93814.75;;;0.19;69.04
79085;BME280;68486;42.808;23.422;2023-04-06T00:39:39;93834.66;;;0.26;69.43
79085;BME280;68486;42.808;23.422;2023-04-06T00:42:11;93835.75;;;0.24;69.42
79085;BME280;68486;42.808;23.422;2023-04-06T00:44:39;93799.56;;;0.16;69.42
79085;BME280;68486;42.808;23.422;2023-04-06T00:47:07;93806.38;;;-0.03;69.78
79085;BME280;68486;42.808;23.422;2023-04-06T00:49:33;93819.63;;;0.22;69.61
79085;BME280;68486;42.808;23.422;2023-04-06T00:51:59;93828.44;;;0.29;69.87
79085;BME280;68486;42.808;23.422;2023-04-06T00:54:25;93840.91;;;0.24;69.75
79085;BME280;68486;42.808;23.422;2023-04-06T00:56:51;93832.38;;;0.23;69.78
79085;BME280;68486;42.808;23.422;2023-04-06T00:59:16;93833.06;;;0.16;70.36
79085;BME280;68486;42.808;23.422;2023-04-06T01:01:42;93832.63;;;0.30;69.71
79085;BME280;68486;42.808;23.422;2023-04-06T01:04:07;93832.25;;;0.15;70.43
79085;BME280;68486;42.808;23.422;2023-04-06T01:06:33;93832.09;;;0.17;70.05
79085;BME280;68486;42.808;23.422;2023-04-06T01:08:58;93813.78;;;0.20;70.21
79085;BME280;68486;42.808;23.422;2023-04-06T01:11:24;93818.69;;;0.23;70.29
79085;BME280;68486;42.808;23.422;2023-04-06T01:13:50;93811.06;;;0.21;70.27
79085;BME280;68486;42.808;23.422;2023-04-06T01:16:15;93814.44;;;0.32;70.19
79085;BME280;68486;42.808;23.422;2023-04-06T01:18:41;93815.97;;;0.24;69.64
79085;BME280;68486;42.808;23.422;2023-04-06T01:21:08;93804.31;;;0.11;70.76
79085;BME280;68486;42.808;23.422;2023-04-06T01:23:35;93798.38;;;0.01;70.37
79085;BME280;68486;42.808;23.422;2023-04-06T01:26:00;93810.53;;;0.18;70.40
79085;BME280;68486;42.808;23.422;2023-04-06T01:28:26;93799.31;;;-0.01;70.74
79085;BME280;68486;42.808;23.422;2023-04-06T01:30:51;93793.63;;;0.06;70.52
79085;BME280;68486;42.808;23.422;2023-04-06T01:33:17;93798.38;;;0.01;70.47
79085;BME280;68486;42.808;23.422;2023-04-06T01:35:42;93766.69;;;-0.19;70.98
79085;BME280;68486;42.808;23.422;2023-04-06T01:38:08;93803.16;;;-0.14;71.31
79085;BME280;68486;42.808;23.422;2023-04-06T01:40:33;93805.97;;;-0.08;71.48
79085;BME280;68486;42.808;23.422;2023-04-06T01:42:58;93800.31;;;0.36;70.51
79085;BME280;68486;42.808;23.422;2023-04-06T01:45:24;93800.91;;;0.20;71.03
79085;BME280;68486;42.808;23.422;2023-04-06T01:47:50;93796.97;;;0.25;71.19
79085;BME280;68486;42.808;23.422;2023-04-06T01:50:15;93801.88;;;0.19;71.56
79085;BME280;68486;42.808;23.422;2023-04-06T01:52:41;93791.97;;;0.14;71.83
79085;BME280;68486;42.808;23.422;2023-04-06T01:55:06;93794.53;;;0.24;71.00
79085;BME280;68486;42.808;23.422;2023-04-06T01:57:32;93790.34;;;0.23;71.68
79085;BME280;68486;42.808;23.422;2023-04-06T01:59:58;93790.63;;;0.10;71.53
79085;BME280;68486;42.808;23.422;2023-04-06T02:02:23;93779.84;;;0.34;71.03
79085;BME280;68486;42.808;23.422;2023-04-06T02:04:49;93792.38;;;0.29;71.63
79085;BME280;68486;42.808;23.422;2023-04-06T02:07:14;93787.38;;;0.18;71.65
79085;BME280;68486;42.808;23.422;2023-04-06T02:09:40;93773.75;;;-0.12;71.98
79085;BME280;68486;42.808;23.422;2023-04-06T02:12:05;93789.66;;;0.21;71.76
79085;BME280;68486;42.808;23.422;2023-04-06T02:14:32;93786.16;;;0.22;71.56
79085;BME280;68486;42.808;23.422;2023-04-06T02:16:58;93783.31;;;0.06;71.97
79085;BME280;68486;42.808;23.422;2023-04-06T02:19:23;93782.78;;;0.02;72.00
79085;BME280;68486;42.808;23.422;2023-04-06T02:21:49;93790.69;;;-0.19;72.64
79085;BME280;68486;42.808;23.422;2023-04-06T02:24:14;93779.13;;;0.05;72.43
79085;BME280;68486;42.808;23.422;2023-04-06T02:26:40;93784.28;;;-0.15;72.77
79085;BME280;68486;42.808;23.422;2023-04-06T02:29:05;93779.66;;;-0.02;72.61
79085;BME280;68486;42.808;23.422;2023-04-06T02:31:32;93780.25;;;-0.27;73.42
79085;BME280;68486;42.808;23.422;2023-04-06T02:33:57;93789.97;;;0.08;72.36
79085;BME280;68486;42.808;23.422;2023-04-06T02:36:22;93778.88;;;-0.12;72.42
79085;BME280;68486;42.808;23.422;2023-04-06T02:38:48;93774.56;;;-0.21;73.11
79085;BME280;68486;42.808;23.422;2023-04-06T02:41:13;93792.47;;;0.27;70.95
79085;BME280;68486;42.808;23.422;2023-04-06T02:43:39;93780.44;;;0.18;71.45
79085;BME280;68486;42.808;23.422;2023-04-06T02:46:04;93799.31;;;0.09;71.72
79085;BME280;68486;42.808;23.422;2023-04-06T02:48:30;93785.50;;;0.47;70.82
79085;BME280;68486;42.808;23.422;2023-04-06T02:50:55;93781.25;;;0.19;70.97
79085;BME280;68486;42.808;23.422;2023-04-06T02:53:21;93788.44;;;0.62;70.46
79085;BME280;68486;42.808;23.422;2023-04-06T02:55:46;93797.88;;;0.34;70.95
79085;BME280;68486;42.808;23.422;2023-04-06T02:58:11;93770.03;;;0.10;70.81
79085;BME280;68486;42.808;23.422;2023-04-06T03:00:37;93781.56;;;0.43;71.26
79085;BME280;68486;42.808;23.422;2023-04-06T03:03:02;93774.69;;;0.34;71.23
79085;BME280;68486;42.808;23.422;2023-04-06T03:05:28;93788.75;;;0.49;70.64
79085;BME280;68486;42.808;23.422;2023-04-06T03:07:53;93788.06;;;0.10;72.25
79085;BME280;68486;42.808;23.422;2023-04-06T03:10:19;93788.56;;;0.14;72.29
79085;BME280;68486;42.808;23.422;2023-04-06T03:12:44;93798.94;;;-0.06;72.50
79085;BME280;68486;42.808;23.422;2023-04-06T03:15:10;93800.00;;;0.02;71.96
79085;BME280;68486;42.808;23.422;2023-04-06T03:17:36;93789.16;;;0.08;72.21
79085;BME280;68486;42.808;23.422;2023-04-06T03:20:02;93788.28;;;0.26;72.26
79085;BME280;68486;42.808;23.422;2023-04-06T03:22:28;93787.91;;;0.12;72.62
79085;BME280;68486;42.808;23.422;2023-04-06T03:24:54;93774.00;;;-0.05;72.68
79085;BME280;68486;42.808;23.422;2023-04-06T03:27:19;93791.72;;;0.08;72.96
79085;BME280;68486;42.808;23.422;2023-04-06T03:29:45;93758.59;;;-0.34;73.53
79085;BME280;68486;42.808;23.422;2023-04-06T03:32:11;93786.31;;;-0.09;72.91
79085;BME280;68486;42.808;23.422;2023-04-06T03:34:36;93791.84;;;0.06;73.07
79085;BME280;68486;42.808;23.422;2023-04-06T03:37:02;93781.06;;;-0.17;73.28
79085;BME280;68486;42.808;23.422;2023-04-06T03:39:27;93781.16;;;-0.09;73.01
79085;BME280;68486;42.808;23.422;2023-04-06T03:41:52;93777.94;;;-0.11;72.91
79085;BME280;68486;42.808;23.422;2023-04-06T03:44:18;93783.06;;;-0.01;72.71
79085;BME280;68486;42.808;23.422;2023-04-06T03:46:43;93784.84;;;-0.11;73.17
79085;BME280;68486;42.808;23.422;2023-04-06T03:49:09;93738.53;;;-0.40;72.99
79085;BME280;68486;42.808;23.422;2023-04-06T03:51:34;93784.44;;;-0.16;73.68
79085;BME280;68486;42.808;23.422;2023-04-06T03:54:00;93757.38;;;-0.40;73.60
79085;BME280;68486;42.808;23.422;2023-04-06T03:56:25;93785.94;;;-0.23;73.30
79085;BME280;68486;42.808;23.422;2023-04-06T03:58:51;93786.72;;;-0.04;72.59
79085;BME280;68486;42.808;23.422;2023-04-06T04:01:17;93783.47;;;-0.06;72.67
79085;BME280;68486;42.808;23.422;2023-04-06T04:03:43;93777.25;;;-0.13;73.00
79085;BME280;68486;42.808;23.422;2023-04-06T04:06:08;93769.41;;;-0.21;73.23
79085;BME280;68486;42.808;23.422;2023-04-06T04:08:34;93774.56;;;-0.21;73.58
79085;BME280;68486;42.808;23.422;2023-04-06T04:11:00;93786.75;;;-0.33;73.52
79085;BME280;68486;42.808;23.422;2023-04-06T04:13:26;93774.84;;;-0.14;73.50
79085;BME280;68486;42.808;23.422;2023-04-06T04:15:51;93752.09;;;-0.48;73.46
79085;BME280;68486;42.808;23.422;2023-04-06T04:18:18;93776.69;;;0.03;72.57
79085;BME280;68486;42.808;23.422;2023-04-06T04:20:43;93780.78;;;-0.04;72.43
79085;BME280;68486;42.808;23.422;2023-04-06T04:23:09;93773.88;;;-0.13;72.27
79085;BME280;68486;42.808;23.422;2023-04-06T04:25:34;93781.56;;;0.16;72.28
79085;BME280;68486;42.808;23.422;2023-04-06T04:28:00;93778.38;;;0.32;71.64
79085;BME280;68486;42.808;23.422;2023-04-06T04:30:25;93785.91;;;0.43;71.22
79085;BME280;68486;42.808;23.422;2023-04-06T04:32:50;93792.16;;;-0.07;72.66
79085;BME280;68486;42.808;23.422;2023-04-06T04:35:16;93783.84;;;0.19;71.76
79085;BME280;68486;42.808;23.422;2023-04-06T04:37:41;93785.00;;;0.34;71.66
79085;BME280;68486;42.808;23.422;2023-04-06T04:40:07;93790.44;;;0.31;71.25
79085;BME280;68486;42.808;23.422;2023-04-06T04:42:33;93785.81;;;0.44;71.51
79085;BME280;68486;42.808;23.422;2023-04-06T04:44:59;93787.22;;;0.19;70.92
79085;BME280;68486;42.808;23.422;2023-04-06T04:47:24;93802.97;;;0.07;71.42
79085;BME280;68486;42.808;23.422;2023-04-06T04:49:50;93784.78;;;0.18;71.16
79085;BME280;68486;42.808;23.422;2023-04-06T04:52:15;93788.31;;;0.17;71.18
79085;BME280;68486;42.808;23.422;2023-04-06T04:54:41;93786.25;;;0.30;71.30
79085;BME280;68486;42.808;23.422;2023-04-06T04:57:06;93769.84;;;0.31;71.22
79085;BME280;68486;42.808;23.422;2023-04-06T04:59:32;93785.00;;;0.34;70.62
79085;BME280;68486;42.808;23.422;2023-04-06T05:01:57;93792.88;;;0.33;71.09
79085;BME280;68486;42.808;23.422;2023-04-06T05:04:23;93786.97;;;0.22;71.25
79085;BME280;68486;42.808;23.422;2023-04-06T05:06:49;93778.78;;;0.37;71.24
79085;BME280;68486;42.808;23.422;2023-04-06T05:09:14;93775.94;;;0.30;70.89
79085;BME280;68486;42.808;23.422;2023-04-06T05:11:40;93744.28;;;0.10;70.92
79085;BME280;68486;42.808;23.422;2023-04-06T05:14:05;93784.75;;;0.27;71.57
79085;BME280;68486;42.808;23.422;2023-04-06T05:16:32;93775.09;;;0.39;71.13
79085;BME280;68486;42.808;23.422;2023-04-06T05:18:58;93769.28;;;0.37;71.03
79085;BME280;68486;42.808;23.422;2023-04-06T05:21:23;93773.03;;;0.52;70.62
79085;BME280;68486;42.808;23.422;2023-04-06T05:23:48;93759.19;;;0.53;70.46
79085;BME280;68486;42.808;23.422;2023-04-06T05:26:14;93749.78;;;0.25;71.79
79085;BME280;68486;42.808;23.422;2023-04-06T05:28:39;93770.41;;;0.25;71.59
79085;BME280;68486;42.808;23.422;2023-04-06T05:31:07;93772.28;;;0.33;71.23
79085;BME280;68486;42.808;23.422;2023-04-06T05:33:33;93767.63;;;0.46;71.34
79085;BME280;68486;42.808;23.422;2023-04-06T05:35:58;93777.31;;;0.62;70.28
79085;BME280;68486;42.808;23.422;2023-04-06T05:38:25;93770.34;;;0.44;70.85
79085;BME280;68486;42.808;23.422;2023-04-06T05:40:51;93779.09;;;0.24;71.59
79085;BME280;68486;42.808;23.422;2023-04-06T05:43:16;93767.75;;;0.72;70.75
79085;BME280;68486;42.808;23.422;2023-04-06T05:45:44;93772.66;;;1.02;69.20
79085;BME280;68486;42.808;23.422;2023-04-06T05:48:09;93769.06;;;0.86;69.81
79085;BME280;68486;42.808;23.422;2023-04-06T05:50:35;93761.56;;;0.92;69.95
79085;BME280;68486;42.808;23.422;2023-04-06T05:53:00;93767.19;;;0.78;69.77
79085;BME280;68486;42.808;23.422;2023-04-06T05:55:26;93772.72;;;0.55;70.93
79085;BME280;68486;42.808;23.422;2023-04-06T05:57:52;93750.41;;;0.74;70.06
79085;BME280;68486;42.808;23.422;2023-04-06T06:00:18;93761.94;;;0.70;70.15
79085;BME280;68486;42.808;23.422;2023-04-06T06:02:44;93763.97;;;0.76;70.82
79085;BME280;68486;42.808;23.422;2023-04-06T06:05:09;93761.56;;;0.65;70.49
79085;BME280;68486;42.808;23.422;2023-04-06T06:07:36;93752.19;;;0.91;69.67
79085;BME280;68486;42.808;23.422;2023-04-06T06:10:01;93757.09;;;0.94;69.22
79085;BME280;68486;42.808;23.422;2023-04-06T06:12:28;93759.84;;;0.83;68.63
79085;BME280;68486;42.808;23.422;2023-04-06T06:14:54;93758.63;;;0.87;69.79
79085;BME280;68486;42.808;23.422;2023-04-06T06:17:20;93770.91;;;0.93;69.28
79085;BME280;68486;42.808;23.422;2023-04-06T06:19:45;93758.97;;;0.92;68.93
79085;BME280;68486;42.808;23.422;2023-04-06T06:22:11;93758.22;;;0.82;69.52
79085;BME280;68486;42.808;23.422;2023-04-06T06:24:36;93752.06;;;1.38;67.52
79085;BME280;68486;42.808;23.422;2023-04-06T06:27:02;93755.25;;;1.04;67.48
79085;BME280;68486;42.808;23.422;2023-04-06T06:29:27;93753.59;;;1.31;67.81
79085;BME280;68486;42.808;23.422;2023-04-06T06:31:52;93763.41;;;1.45;67.71
79085;BME280;68486;42.808;23.422;2023-04-06T06:34:18;93747.00;;;1.72;66.88
79085;BME280;68486;42.808;23.422;2023-04-06T06:36:43;93761.34;;;1.31;67.08
79085;BME280;68486;42.808;23.422;2023-04-06T06:39:09;93756.81;;;1.69;66.62
79085;BME280;68486;42.808;23.422;2023-04-06T06:41:34;93755.56;;;1.73;66.70
79085;BME280;68486;42.808;23.422;2023-04-06T06:44:01;93733.59;;;1.33;67.36
79085;BME280;68486;42.808;23.422;2023-04-06T06:46:26;93761.53;;;1.20;68.27
79085;BME280;68486;42.808;23.422;2023-04-06T06:48:51;93766.31;;;1.86;66.61
79085;BME280;68486;42.808;23.422;2023-04-06T06:51:17;93770.22;;;1.19;67.74
79085;BME280;68486;42.808;23.422;2023-04-06T06:53:42;93770.50;;;1.87;66.76
79085;BME280;68486;42.808;23.422;2023-04-06T06:56:08;93772.59;;;1.65;67.41
79085;BME280;68486;42.808;23.422;2023-04-06T06:58:33;93770.66;;;2.03;65.58
79085;BME280;68486;42.808;23.422;2023-04-06T07:00:59;93771.72;;;1.39;67.13
79085;BME280;68486;42.808;23.422;2023-04-06T07:03:25;93768.88;;;1.60;65.90
79085;BME280;68486;42.808;23.422;2023-04-06T07:05:51;93768.63;;;1.89;66.11
79085;BME280;68486;42.808;23.422;2023-04-06T07:08:23;93772.03;;;1.54;66.92
79085;BME280;68486;42.808;23.422;2023-04-06T07:10:50;93774.44;;;1.73;66.39
79085;BME280;68486;42.808;23.422;2023-04-06T07:13:17;93775.56;;;1.71;66.94
79085;BME280;68486;42.808;23.422;2023-04-06T07:15:47;93780.00;;;1.60;66.23
79085;BME280;68486;42.808;23.422;2023-04-06T07:18:12;93778.78;;;1.37;67.17
79085;BME280;68486;42.808;23.422;2023-04-06T07:20:38;93746.50;;;1.33;67.42
79085;BME280;68486;42.808;23.422;2023-04-06T07:23:03;93777.59;;;1.85;65.97
79085;BME280;68486;42.808;23.422;2023-04-06T07:25:29;93774.53;;;1.63;66.08
79085;BME280;68486;42.808;23.422;2023-04-06T07:27:55;93775.66;;;1.61;66.28
79085;BME280;68486;42.808;23.422;2023-04-06T07:30:20;93768.06;;;1.59;66.22
79085;BME280;68486;42.808;23.422;2023-04-06T07:32:47;93738.97;;;1.22;66.67
79085;BME280;68486;42.808;23.422;2023-04-06T07:35:14;93785.66;;;1.28;66.50
79085;BME280;68486;42.808;23.422;2023-04-06T07:37:40;93769.50;;;1.44;66.25
79085;BME280;68486;42.808;23.422;2023-04-06T07:40:06;93776.31;;;1.45;65.91
79085;BME280;68486;42.808;23.422;2023-04-06T07:42:32;93773.34;;;1.40;65.91
79085;BME280;68486;42.808;23.422;2023-04-06T07:44:58;93776.13;;;1.29;66.37
79085;BME280;68486;42.808;23.422;2023-04-06T07:47:23;93758.50;;;1.06;66.46
79085;BME280;68486;42.808;23.422;2023-04-06T07:49:49;93771.72;;;1.75;65.01
79085;BME280;68486;42.808;23.422;2023-04-06T07:52:15;93759.47;;;1.77;64.68
79085;BME280;68486;42.808;23.422;2023-04-06T07:54:40;93762.28;;;1.65;64.33
79085;BME280;68486;42.808;23.422;2023-04-06T07:57:09;93768.63;;;1.53;63.95
79085;BME280;68486;42.808;23.422;2023-04-06T07:59:34;93765.03;;;1.46;64.77
79085;BME280;68486;42.808;23.422;2023-04-06T08:02:00;93766.63;;;1.83;64.77
79085;BME280;68486;42.808;23.422;2023-04-06T08:04:26;93771.47;;;2.30;62.72
79085;BME280;68486;42.808;23.422;2023-04-06T08:06:51;93767.66;;;1.90;63.17
79085;BME280;68486;42.808;23.422;2023-04-06T08:09:19;93760.31;;;2.03;62.57
79085;BME280;68486;42.808;23.422;2023-04-06T08:11:44;93767.44;;;2.09;62.94
79085;BME280;68486;42.808;23.422;2023-04-06T08:14:11;93766.19;;;2.13;61.62
79085;BME280;68486;42.808;23.422;2023-04-06T08:16:36;93757.06;;;2.27;61.53
79085;BME280;68486;42.808;23.422;2023-04-06T08:19:02;93757.56;;;2.31;61.41
79085;BME280;68486;42.808;23.422;2023-04-06T08:21:28;93760.69;;;2.34;61.02
79085;BME280;68486;42.808;23.422;2023-04-06T08:23:54;93767.81;;;2.40;61.43
79085;BME280;68486;42.808;23.422;2023-04-06T08:26:19;93768.91;;;2.38;61.61
79085;BME280;68486;42.808;23.422;2023-04-06T08:28:45;93769.09;;;3.04;60.12
79085;BME280;68486;42.808;23.422;2023-04-06T08:31:10;93724.44;;;2.26;60.23
79085;BME280;68486;42.808;23.422;2023-04-06T08:33:35;93784.09;;;2.33;60.58
79085;BME280;68486;42.808;23.422;2023-04-06T08:36:14;93761.75;;;2.58;60.31
79085;BME280;68486;42.808;23.422;2023-04-06T08:38:41;93784.53;;;2.54;59.38
79085;BME280;68486;42.808;23.422;2023-04-06T08:41:12;93773.84;;;2.83;58.97
79085;BME280;68486;42.808;23.422;2023-04-06T08:43:46;93773.31;;;2.71;59.03
79085;BME280;68486;42.808;23.422;2023-04-06T08:46:13;93776.28;;;2.51;59.95
79085;BME280;68486;42.808;23.422;2023-04-06T08:48:40;93778.91;;;3.01;58.58
79085;BME280;68486;42.808;23.422;2023-04-06T08:51:07;93777.34;;;3.08;58.82
79085;BME280;68486;42.808;23.422;2023-04-06T08:53:33;93776.94;;;3.37;58.20
79085;BME280;68486;42.808;23.422;2023-04-06T08:55:59;93776.75;;;3.39;58.68
79085;BME280;68486;42.808;23.422;2023-04-06T08:58:28;93780.97;;;3.40;58.55
79085;BME280;68486;42.808;23.422;2023-04-06T09:00:54;93781.28;;;3.37;57.45
79085;BME280;68486;42.808;23.422;2023-04-06T09:03:20;93777.69;;;3.21;58.36
79085;BME280;68486;42.808;23.422;2023-04-06T09:05:46;93770.94;;;3.37;58.32
79085;BME280;68486;42.808;23.422;2023-04-06T09:08:12;93785.38;;;2.97;58.17
79085;BME280;68486;42.808;23.422;2023-04-06T09:10:41;93771.66;;;2.62;59.96
79085;BME280;68486;42.808;23.422;2023-04-06T09:13:08;93774.03;;;2.90;58.93
79085;BME280;68486;42.808;23.422;2023-04-06T09:15:34;93774.84;;;2.90;58.59
79085;BME280;68486;42.808;23.422;2023-04-06T09:18:00;93737.47;;;2.85;58.36
79085;BME280;68486;42.808;23.422;2023-04-06T09:20:26;93775.19;;;2.95;57.65
79085;BME280;68486;42.808;23.422;2023-04-06T09:22:53;93782.06;;;3.21;57.77
79085;BME280;68486;42.808;23.422;2023-04-06T09:25:21;93773.25;;;2.97;57.73
79085;BME280;68486;42.808;23.422;2023-04-06T09:27:48;93776.06;;;3.12;57.94
79085;BME280;68486;42.808;23.422;2023-04-06T09:30:14;93772.41;;;2.89;58.63
79085;BME280;68486;42.808;23.422;2023-04-06T09:32:59;93764.28;;;3.26;58.51
79085;BME280;68486;42.808;23.422;2023-04-06T09:35:24;93769.31;;;3.36;57.62
79085;BME280;68486;42.808;23.422;2023-04-06T09:37:52;93772.31;;;2.64;59.29
79085;BME280;68486;42.808;23.422;2023-04-06T09:40:18;93766.38;;;3.30;58.37
79085;BME280;68486;42.808;23.422;2023-04-06T09:42:48;93778.28;;;2.99;59.38
79085;BME280;68486;42.808;23.422;2023-04-06T09:45:15;93778.53;;;3.38;57.74
79085;BME280;68486;42.808;23.422;2023-04-06T09:47:45;93773.53;;;3.37;58.39
79085;BME280;68486;42.808;23.422;2023-04-06T09:50:12;93781.53;;;3.09;58.48
79085;BME280;68486;42.808;23.422;2023-04-06T09:52:46;93765.09;;;3.26;57.43
79085;BME280;68486;42.808;23.422;2023-04-06T09:58:13;93773.78;;;3.84;56.12
79085;BME280;68486;42.808;23.422;2023-04-06T10:01:15;93780.06;;;3.65;56.70
79085;BME280;68486;42.808;23.422;2023-04-06T10:04:13;93761.25;;;4.12;55.12
79085;BME280;68486;42.808;23.422;2023-04-06T10:06:46;93767.75;;;4.08;56.61
79085;BME280;68486;42.808;23.422;2023-04-06T10:09:17;93767.09;;;4.22;55.60
79085;BME280;68486;42.808;23.422;2023-04-06T10:11:43;93771.66;;;3.79;56.01
79085;BME280;68486;42.808;23.422;2023-04-06T10:14:09;93766.56;;;4.51;55.00
79085;BME280;68486;42.808;23.422;2023-04-06T10:16:35;93771.94;;;4.33;52.98
79085;BME280;68486;42.808;23.422;2023-04-06T10:19:13;93765.81;;;4.10;53.83
79085;BME280;68486;42.808;23.422;2023-04-06T10:21:44;93764.84;;;3.95;54.30
79085;BME280;68486;42.808;23.422;2023-04-06T10:24:11;93761.94;;;4.22;55.37
79085;BME280;68486;42.808;23.422;2023-04-06T10:26:38;93754.03;;;4.63;52.56
79085;BME280;68486;42.808;23.422;2023-04-06T10:29:04;93753.34;;;4.77;51.84
79085;BME280;68486;42.808;23.422;2023-04-06T10:31:30;93713.69;;;4.99;51.36
79085;BME280;68486;42.808;23.422;2023-04-06T10:34:00;93733.13;;;5.66;49.68
79085;BME280;68486;42.808;23.422;2023-04-06T10:36:35;93739.81;;;4.98;51.12
79085;BME280;68486;42.808;23.422;2023-04-06T10:39:03;93738.56;;;5.25;50.14
79085;BME280;68486;42.808;23.422;2023-04-06T10:41:40;93732.41;;;5.18;50.42
79085;BME280;68486;42.808;23.422;2023-04-06T10:44:06;93727.72;;;5.90;49.15
79085;BME280;68486;42.808;23.422;2023-04-06T10:46:33;93727.59;;;6.59;46.75
79085;BME280;68486;42.808;23.422;2023-04-06T10:49:09;93727.16;;;6.85;47.83
79085;BME280;68486;42.808;23.422;2023-04-06T10:51:37;93731.22;;;7.24;46.24
79085;BME280;68486;42.808;23.422;2023-04-06T10:54:03;93697.53;;;6.27;47.72
79085;BME280;68486;42.808;23.422;2023-04-06T10:56:30;93705.41;;;6.19;47.68
79085;BME280;68486;42.808;23.422;2023-04-06T10:58:59;93722.06;;;6.10;46.94
79085;BME280;68486;42.808;23.422;2023-04-06T11:01:25;93718.25;;;6.64;46.69
79085;BME280;68486;42.808;23.422;2023-04-06T11:03:56;93713.03;;;6.20;48.02
79085;BME280;68486;42.808;23.422;2023-04-06T11:06:28;93712.97;;;6.73;48.34
79085;BME280;68486;42.808;23.422;2023-04-06T11:08:56;93713.31;;;6.99;45.33
79085;BME280;68486;42.808;23.422;2023-04-06T11:11:25;93707.31;;;6.69;47.03
79085;BME280;68486;42.808;23.422;2023-04-06T11:13:56;93702.56;;;6.58;46.14
79085;BME280;68486;42.808;23.422;2023-04-06T11:16:30;93677.44;;;6.35;45.71
79085;BME280;68486;42.808;23.422;2023-04-06T11:18:58;93702.59;;;7.45;46.20
79085;BME280;68486;42.808;23.422;2023-04-06T11:24:19;93696.25;;;9.22;40.90
79085;BME280;68486;42.808;23.422;2023-04-06T11:26:50;93691.84;;;8.40;43.50
79085;BME280;68486;42.808;23.422;2023-04-06T11:29:29;93691.69;;;7.56;44.01
79085;BME280;68486;42.808;23.422;2023-04-06T11:32:00;93696.81;;;9.85;40.07
79085;BME280;68486;42.808;23.422;2023-04-06T11:34:27;93679.19;;;8.78;41.62
79085;BME280;68486;42.808;23.422;2023-04-06T11:36:58;93693.34;;;8.35;44.08
79085;BME280;68486;42.808;23.422;2023-04-06T11:39:25;93649.25;;;8.40;41.64
79085;BME280;68486;42.808;23.422;2023-04-06T11:41:53;93671.50;;;10.26;38.16
79085;BME280;68486;42.808;23.422;2023-04-06T11:46:53;93690.31;;;9.55;40.28
79085;BME280;68486;42.808;23.422;2023-04-06T11:49:19;93695.72;;;8.92;41.78
79085;BME280;68486;42.808;23.422;2023-04-06T11:51:46;93693.22;;;7.29;42.69
79085;BME280;68486;42.808;23.422;2023-04-06T11:54:11;93696.34;;;7.03;43.96
79085;BME280;68486;42.808;23.422;2023-04-06T11:56:38;93694.72;;;6.87;45.18
79085;BME280;68486;42.808;23.422;2023-04-06T11:59:03;93695.50;;;7.54;42.11
79085;BME280;68486;42.808;23.422;2023-04-06T12:01:29;93676.88;;;9.71;38.97
79085;BME280;68486;42.808;23.422;2023-04-06T12:03:55;93679.56;;;8.75;39.49
79085;BME280;68486;42.808;23.422;2023-04-06T12:06:21;93687.72;;;7.39;40.15
79085;BME280;68486;42.808;23.422;2023-04-06T12:08:46;93679.00;;;7.96;41.60
79085;BME280;68486;42.808;23.422;2023-04-06T12:11:12;93682.50;;;7.82;40.13
79085;BME280;68486;42.808;23.422;2023-04-06T12:13:37;93680.25;;;7.36;41.98
79085;BME280;68486;42.808;23.422;2023-04-06T12:16:03;93685.66;;;6.98;41.79
79085;BME280;68486;42.808;23.422;2023-04-06T12:18:30;93667.34;;;8.41;40.72
79085;BME280;68486;42.808;23.422;2023-04-06T12:20:55;93684.13;;;7.40;43.00
79085;BME280;68486;42.808;23.422;2023-04-06T12:23:21;93677.78;;;7.28;41.91
79085;BME280;68486;42.808;23.422;2023-04-06T12:25:48;93676.91;;;7.85;41.58
79085;BME280;68486;42.808;23.422;2023-04-06T12:28:14;93679.47;;;7.35;42.81
79085;BME280;68486;42.808;23.422;2023-04-06T12:30:39;93671.25;;;7.17;41.96
79085;BME280;68486;42.808;23.422;2023-04-06T12:33:06;93676.16;;;7.27;43.61
79085;BME280;68486;42.808;23.422;2023-04-06T12:35:34;93664.31;;;7.67;42.30
79085;BME280;68486;42.808;23.422;2023-04-06T12:38:00;93646.06;;;7.24;40.68
79085;BME280;68486;42.808;23.422;2023-04-06T12:40:26;93674.84;;;8.92;39.99
79085;BME280;68486;42.808;23.422;2023-04-06T12:42:51;93662.66;;;8.65;38.42
79085;BME280;68486;42.808;23.422;2023-04-06T12:45:16;93649.91;;;8.20;38.48
79085;BME280;68486;42.808;23.422;2023-04-06T12:47:42;93678.25;;;7.16;41.60
79085;BME280;68486;42.808;23.422;2023-04-06T12:50:08;93665.94;;;8.17;41.14
79085;BME280;68486;42.808;23.422;2023-04-06T12:52:33;93660.75;;;8.87;41.02
79085;BME280;68486;42.808;23.422;2023-04-06T12:55:04;93683.06;;;6.98;40.40
79085;BME280;68486;42.808;23.422;2023-04-06T12:57:30;93652.97;;;7.53;40.27
79085;BME280;68486;42.808;23.422;2023-04-06T12:59:56;93645.25;;;8.44;39.49
79085;BME280;68486;42.808;23.422;2023-04-06T13:02:22;93651.44;;;9.25;38.64
79085;BME280;68486;42.808;23.422;2023-04-06T13:04:48;93648.16;;;7.99;38.40